< Cyclone 199012 1990 Season Cyclone 199101 >
Cyclone 199013 (TINA)
General InformationTrack Information on Google MapsDetailed Wind InformationList of All Images || ResourceGoogle EarthGE AnimationAtom FeedGeoJSON
Detalied Best Track (Time Zone = UTC)
Year Month Day Hour Lat. Long. Pressure (hPa) Wind (kt) Class Image Chart
1990 1 24 01 -14.2 117.0 1002 19 2 Image --
1990 1 24 06 -14.2 116.6 1000 19 2 Image --
1990 1 24 09 -14.8 116.3 1000 19 2 Image --
1990 1 24 16 -15.2 115.5 1000 19 2 Image --
1990 1 25 01 -15.7 114.4 999 21 2 Image --
1990 1 25 06 -15.8 113.9 994 25 2 Image --
1990 1 25 09 -15.9 113.6 993 29 2 Image --
1990 1 25 16 -16.2 113.6 991 31 2 Image --
1990 1 26 01 -16.7 113.5 988 35 3 Image --
1990 1 26 06 -16.9 112.9 985 37 3 Image --
1990 1 26 14 -18.1 112.6 984 37 3 Image --
1990 1 26 16 -18.4 112.7 982 41 3 Image --
1990 1 26 19 -18.7 113.0 979 45 3 Image --
1990 1 27 01 -19.5 113.4 976 49 4 Image --
1990 1 27 06 -20.5 113.7 973 51 4 Image --
1990 1 27 09 -21.1 113.8 972 53 4 Image --
1990 1 27 10 -21.2 113.8 972 53 4 Image --
1990 1 27 16 -22.6 114.1 978 51 4 Image --
1990 1 28 01 -25.0 115.2 980 49 4 Image --
1990 1 28 06 -26.6 115.7 984 43 3 Image --
1990 1 28 10 -29.6 117.3 987 39 3 Image --
< Cyclone 199012 1990 Season Cyclone 199101 >

Help